# Tabular Observed and Forecast Hydrograph Information
#
# Location: South Fork Pit River - Likely (PLYC1)
#
# File Generation Time: 05/08/2026 at 09:26 AM PDT
# Data Interval: 1 Hour
#
# Most Recent Date & Time of Maximum Observed: 05/07/2026 at 01:00 PM PDT
# Maximum Observed Stage: 3.12 Feet
# Maximum Observed Flow: 182 cfs
#
# Earliest Date & Time of Maximum Forecast: 05/08/2026 at 10:00 AM PDT
# Maximum Forecast Stage: 3.07 Feet
# Maximum Forecast Flow: 172 cfs
#
# OBSERVED
#
# Date & Time (Local) Stage (Feet) Flow (cfs) Trend Observed Status
# ---------------------------------------------------------------------------------
05/03/2026 09 AM PDT 2.81 125 Not Applicable
05/03/2026 10 AM PDT 2.81 125 0 Not Applicable
05/03/2026 11 AM PDT 2.81 125 0 Not Applicable
05/03/2026 12 PM PDT 2.82 127 + Not Applicable
05/03/2026 01 PM PDT 2.82 127 0 Not Applicable
05/03/2026 02 PM PDT 2.82 127 0 Not Applicable
05/03/2026 03 PM PDT 2.82 127 0 Not Applicable
05/03/2026 04 PM PDT 2.82 127 0 Not Applicable
05/03/2026 05 PM PDT 2.82 127 0 Not Applicable
05/03/2026 06 PM PDT 2.81 125 - Not Applicable
05/03/2026 07 PM PDT 2.82 127 + Not Applicable
05/03/2026 08 PM PDT 2.81 125 - Not Applicable
05/03/2026 09 PM PDT 2.80 124 - Not Applicable
05/03/2026 10 PM PDT 2.81 125 + Not Applicable
05/03/2026 11 PM PDT 2.80 124 - Not Applicable
05/04/2026 12 AM PDT 2.81 125 + Not Applicable
05/04/2026 01 AM PDT 2.80 124 - Not Applicable
05/04/2026 02 AM PDT 2.81 125 + Not Applicable
05/04/2026 03 AM PDT 2.81 125 0 Not Applicable
05/04/2026 04 AM PDT 2.80 124 - Not Applicable
05/04/2026 05 AM PDT 2.81 125 + Not Applicable
05/04/2026 06 AM PDT 2.81 125 0 Not Applicable
05/04/2026 07 AM PDT 2.81 125 0 Not Applicable
05/04/2026 08 AM PDT 2.81 125 0 Not Applicable
05/04/2026 09 AM PDT 2.81 125 0 Not Applicable
05/04/2026 10 AM PDT 2.82 127 + Not Applicable
05/04/2026 11 AM PDT 2.82 127 0 Not Applicable
05/04/2026 12 PM PDT 2.83 129 + Not Applicable
05/04/2026 01 PM PDT 2.81 125 - Not Applicable
05/04/2026 02 PM PDT 2.79 122 - Not Applicable
05/04/2026 03 PM PDT 2.77 119 - Not Applicable
05/04/2026 04 PM PDT 2.75 115 - Not Applicable
05/04/2026 05 PM PDT 2.75 115 0 Not Applicable
05/04/2026 06 PM PDT 2.74 114 - Not Applicable
05/04/2026 07 PM PDT 2.74 114 0 Not Applicable
05/04/2026 08 PM PDT 2.73 112 - Not Applicable
05/04/2026 09 PM PDT 2.73 112 0 Not Applicable
05/04/2026 10 PM PDT 2.73 112 0 Not Applicable
05/04/2026 11 PM PDT 2.73 112 0 Not Applicable
05/05/2026 12 AM PDT 2.74 114 + Not Applicable
05/05/2026 01 AM PDT 2.75 115 + Not Applicable
05/05/2026 02 AM PDT 2.75 115 0 Not Applicable
05/05/2026 03 AM PDT 2.76 117 + Not Applicable
05/05/2026 04 AM PDT 2.75 115 - Not Applicable
05/05/2026 05 AM PDT 2.75 115 0 Not Applicable
05/05/2026 06 AM PDT 2.76 117 + Not Applicable
05/05/2026 07 AM PDT 2.76 117 0 Not Applicable
05/05/2026 08 AM PDT 2.77 119 + Not Applicable
05/05/2026 09 AM PDT 2.76 117 - Not Applicable
05/05/2026 10 AM PDT 2.77 119 + Not Applicable
05/05/2026 11 AM PDT 2.77 119 0 Not Applicable
05/05/2026 12 PM PDT 2.76 117 - Not Applicable
05/05/2026 01 PM PDT 2.93 146 + Not Applicable
05/05/2026 02 PM PDT 2.91 143 - Not Applicable
05/05/2026 03 PM PDT 2.92 144 + Not Applicable
05/05/2026 04 PM PDT 2.90 141 - Not Applicable
05/05/2026 05 PM PDT 2.91 143 + Not Applicable
05/05/2026 06 PM PDT 2.90 141 - Not Applicable
05/05/2026 07 PM PDT 2.90 141 0 Not Applicable
05/05/2026 08 PM PDT 2.89 139 - Not Applicable
05/05/2026 09 PM PDT 2.89 139 0 Not Applicable
05/05/2026 10 PM PDT 2.89 139 0 Not Applicable
05/05/2026 11 PM PDT 2.89 139 0 Not Applicable
05/06/2026 12 AM PDT 2.88 137 - Not Applicable
05/06/2026 01 AM PDT 2.89 139 + Not Applicable
05/06/2026 02 AM PDT 2.89 139 0 Not Applicable
05/06/2026 03 AM PDT 2.90 141 + Not Applicable
05/06/2026 04 AM PDT 2.90 141 0 Not Applicable
05/06/2026 05 AM PDT 2.90 141 0 Not Applicable
05/06/2026 06 AM PDT 2.89 139 - Not Applicable
05/06/2026 07 AM PDT 2.89 139 0 Not Applicable
05/06/2026 08 AM PDT 2.89 139 0 Not Applicable
05/06/2026 09 AM PDT 2.89 139 0 Not Applicable
05/06/2026 10 AM PDT 2.90 141 + Not Applicable
05/06/2026 11 AM PDT 2.89 139 - Not Applicable
05/06/2026 12 PM PDT 2.90 141 + Not Applicable
05/06/2026 01 PM PDT 2.90 141 0 Not Applicable
05/06/2026 02 PM PDT 2.90 141 0 Not Applicable
05/06/2026 03 PM PDT 2.89 139 - Not Applicable
05/06/2026 04 PM PDT 2.89 139 0 Not Applicable
05/06/2026 05 PM PDT 2.90 141 + Not Applicable
05/06/2026 06 PM PDT 2.90 141 0 Not Applicable
05/06/2026 07 PM PDT 2.89 139 - Not Applicable
05/06/2026 08 PM PDT 2.89 139 0 Not Applicable
05/06/2026 09 PM PDT 2.87 136 - Not Applicable
05/06/2026 10 PM PDT 2.87 136 0 Not Applicable
05/06/2026 11 PM PDT 2.87 136 0 Not Applicable
05/07/2026 12 AM PDT 2.88 137 + Not Applicable
05/07/2026 01 AM PDT 2.88 137 0 Not Applicable
05/07/2026 02 AM PDT 2.88 137 0 Not Applicable
05/07/2026 03 AM PDT 2.87 136 - Not Applicable
05/07/2026 04 AM PDT 2.87 136 0 Not Applicable
05/07/2026 05 AM PDT 2.87 136 0 Not Applicable
05/07/2026 06 AM PDT 2.87 136 0 Not Applicable
05/07/2026 07 AM PDT 2.87 136 0 Not Applicable
05/07/2026 08 AM PDT 2.88 137 + Not Applicable
05/07/2026 09 AM PDT 2.89 139 + Not Applicable
05/07/2026 10 AM PDT 2.89 139 0 Not Applicable
05/07/2026 11 AM PDT 2.88 137 - Not Applicable
05/07/2026 12 PM PDT 2.89 139 + Not Applicable
05/07/2026 01 PM PDT 3.12 182 + Not Applicable
05/07/2026 02 PM PDT 3.10 178 - Not Applicable
05/07/2026 03 PM PDT 3.10 178 0 Not Applicable
05/07/2026 04 PM PDT 3.10 178 0 Not Applicable
05/07/2026 05 PM PDT 3.10 178 0 Not Applicable
05/07/2026 06 PM PDT 3.09 176 - Not Applicable
05/07/2026 07 PM PDT 3.10 178 + Not Applicable
05/07/2026 08 PM PDT 3.10 178 0 Not Applicable
05/07/2026 09 PM PDT 3.09 176 - Not Applicable
05/07/2026 10 PM PDT 3.08 174 - Not Applicable
05/07/2026 11 PM PDT 3.06 171 - Not Applicable
05/08/2026 12 AM PDT 3.06 171 0 Not Applicable
05/08/2026 01 AM PDT 3.06 171 0 Not Applicable
05/08/2026 02 AM PDT 3.07 172 + Not Applicable
05/08/2026 03 AM PDT 3.07 172 0 Not Applicable
05/08/2026 04 AM PDT 3.08 174 + Not Applicable
05/08/2026 05 AM PDT 3.07 172 - Not Applicable
05/08/2026 06 AM PDT 3.07 172 0 Not Applicable
05/08/2026 07 AM PDT 3.07 172 0 Not Applicable
05/08/2026 08 AM PDT 3.07 172 0 Not Applicable
05/08/2026 09 AM PDT 3.07 172 0 Not Applicable
#
# FORECAST
#
# Date & Time (Local) Stage (Feet) Flow (cfs) Trend Forecast Status
# ---------------------------------------------------------------------------------
05/08/2026 10 AM PDT 3.07 172 Not Applicable
05/08/2026 11 AM PDT 3.07 172 0 Not Applicable
05/08/2026 12 PM PDT 3.07 172 0 Not Applicable
05/08/2026 01 PM PDT 3.07 172 0 Not Applicable
05/08/2026 02 PM PDT 3.07 172 0 Not Applicable
05/08/2026 03 PM PDT 3.07 172 0 Not Applicable
05/08/2026 04 PM PDT 3.07 172 0 Not Applicable
05/08/2026 05 PM PDT 3.07 172 0 Not Applicable
05/08/2026 06 PM PDT 3.07 172 0 Not Applicable
05/08/2026 07 PM PDT 3.07 172 0 Not Applicable
05/08/2026 08 PM PDT 3.07 172 0 Not Applicable
05/08/2026 09 PM PDT 3.07 172 0 Not Applicable
05/08/2026 10 PM PDT 3.07 172 0 Not Applicable
05/08/2026 11 PM PDT 3.07 172 0 Not Applicable
05/09/2026 12 AM PDT 3.07 172 0 Not Applicable
05/09/2026 01 AM PDT 3.07 172 0 Not Applicable
05/09/2026 02 AM PDT 3.07 172 0 Not Applicable
05/09/2026 03 AM PDT 3.07 172 0 Not Applicable
05/09/2026 04 AM PDT 3.07 172 0 Not Applicable
05/09/2026 05 AM PDT 3.07 172 0 Not Applicable
05/09/2026 06 AM PDT 3.07 172 0 Not Applicable
05/09/2026 07 AM PDT 3.07 172 0 Not Applicable
05/09/2026 08 AM PDT 3.07 172 0 Not Applicable
05/09/2026 09 AM PDT 3.07 172 0 Not Applicable
05/09/2026 10 AM PDT 3.07 172 0 Not Applicable
05/09/2026 11 AM PDT 3.07 172 0 Not Applicable
05/09/2026 12 PM PDT 3.07 172 0 Not Applicable
05/09/2026 01 PM PDT 3.07 172 0 Not Applicable
05/09/2026 02 PM PDT 3.07 172 0 Not Applicable
05/09/2026 03 PM PDT 3.07 172 0 Not Applicable
05/09/2026 04 PM PDT 3.07 172 0 Not Applicable
05/09/2026 05 PM PDT 3.07 172 0 Not Applicable
05/09/2026 06 PM PDT 3.07 172 0 Not Applicable
05/09/2026 07 PM PDT 3.07 172 0 Not Applicable
05/09/2026 08 PM PDT 3.07 172 0 Not Applicable
05/09/2026 09 PM PDT 3.07 172 0 Not Applicable
05/09/2026 10 PM PDT 3.07 172 0 Not Applicable
05/09/2026 11 PM PDT 3.07 172 0 Not Applicable
05/10/2026 12 AM PDT 3.07 172 0 Not Applicable
05/10/2026 01 AM PDT 3.07 172 0 Not Applicable
05/10/2026 02 AM PDT 3.07 172 0 Not Applicable
05/10/2026 03 AM PDT 3.07 172 0 Not Applicable
05/10/2026 04 AM PDT 3.07 172 0 Not Applicable
05/10/2026 05 AM PDT 3.07 172 0 Not Applicable
05/10/2026 06 AM PDT 3.07 172 0 Not Applicable
05/10/2026 07 AM PDT 3.07 172 0 Not Applicable
05/10/2026 08 AM PDT 3.07 172 0 Not Applicable
05/10/2026 09 AM PDT 3.07 172 0 Not Applicable
05/10/2026 10 AM PDT 3.07 172 0 Not Applicable
05/10/2026 11 AM PDT 3.07 172 0 Not Applicable
05/10/2026 12 PM PDT 3.07 172 0 Not Applicable
05/10/2026 01 PM PDT 3.07 172 0 Not Applicable
05/10/2026 02 PM PDT 3.07 172 0 Not Applicable
05/10/2026 03 PM PDT 3.07 172 0 Not Applicable
05/10/2026 04 PM PDT 3.06 171 - Not Applicable
05/10/2026 05 PM PDT 3.06 171 0 Not Applicable
05/10/2026 06 PM PDT 3.07 172 + Not Applicable
05/10/2026 07 PM PDT 3.07 172 0 Not Applicable
05/10/2026 08 PM PDT 3.07 172 0 Not Applicable
05/10/2026 09 PM PDT 3.07 172 0 Not Applicable
05/10/2026 10 PM PDT 3.07 172 0 Not Applicable
05/10/2026 11 PM PDT 3.07 172 0 Not Applicable
05/11/2026 12 AM PDT 3.07 172 0 Not Applicable
05/11/2026 01 AM PDT 3.07 172 0 Not Applicable
05/11/2026 02 AM PDT 3.07 172 0 Not Applicable
05/11/2026 03 AM PDT 3.07 172 0 Not Applicable
05/11/2026 04 AM PDT 3.07 172 0 Not Applicable
05/11/2026 05 AM PDT 3.07 172 0 Not Applicable
05/11/2026 06 AM PDT 3.07 172 0 Not Applicable
05/11/2026 07 AM PDT 3.07 172 0 Not Applicable
05/11/2026 08 AM PDT 3.06 171 - Not Applicable
05/11/2026 09 AM PDT 3.06 171 0 Not Applicable
05/11/2026 10 AM PDT 3.06 171 0 Not Applicable
05/11/2026 11 AM PDT 3.06 171 0 Not Applicable
05/11/2026 12 PM PDT 3.06 171 0 Not Applicable
05/11/2026 01 PM PDT 3.06 171 0 Not Applicable
05/11/2026 02 PM PDT 3.06 171 0 Not Applicable
05/11/2026 03 PM PDT 3.06 171 0 Not Applicable
05/11/2026 04 PM PDT 3.06 171 0 Not Applicable
05/11/2026 05 PM PDT 3.06 171 0 Not Applicable
05/11/2026 06 PM PDT 3.06 171 0 Not Applicable
05/11/2026 07 PM PDT 3.06 171 0 Not Applicable
05/11/2026 08 PM PDT 3.06 171 0 Not Applicable
05/11/2026 09 PM PDT 3.06 171 0 Not Applicable
05/11/2026 10 PM PDT 3.07 172 + Not Applicable
05/11/2026 11 PM PDT 3.07 172 0 Not Applicable
05/12/2026 12 AM PDT 3.07 172 0 Not Applicable
05/12/2026 01 AM PDT 3.07 172 0 Not Applicable
05/12/2026 02 AM PDT 3.06 171 - Not Applicable
05/12/2026 03 AM PDT 3.06 171 0 Not Applicable
05/12/2026 04 AM PDT 3.06 171 0 Not Applicable
05/12/2026 05 AM PDT 3.06 171 0 Not Applicable
05/12/2026 06 AM PDT 3.06 171 0 Not Applicable
05/12/2026 07 AM PDT 3.06 171 0 Not Applicable
05/12/2026 08 AM PDT 3.06 171 0 Not Applicable
05/12/2026 09 AM PDT 3.06 171 0 Not Applicable
05/12/2026 10 AM PDT 3.06 171 0 Not Applicable
05/12/2026 11 AM PDT 3.06 171 0 Not Applicable
05/12/2026 12 PM PDT 3.06 171 0 Not Applicable
05/12/2026 01 PM PDT 3.06 171 0 Not Applicable
05/12/2026 02 PM PDT 3.06 171 0 Not Applicable
05/12/2026 03 PM PDT 3.06 171 0 Not Applicable
05/12/2026 04 PM PDT 3.06 171 0 Not Applicable
05/12/2026 05 PM PDT 3.06 171 0 Not Applicable
05/12/2026 06 PM PDT 3.06 171 0 Not Applicable
05/12/2026 07 PM PDT 3.06 171 0 Not Applicable
05/12/2026 08 PM PDT 3.06 171 0 Not Applicable
05/12/2026 09 PM PDT 3.06 171 0 Not Applicable
05/12/2026 10 PM PDT 3.06 171 0 Not Applicable
05/12/2026 11 PM PDT 3.06 171 0 Not Applicable
05/13/2026 12 AM PDT 3.06 171 0 Not Applicable
05/13/2026 01 AM PDT 3.06 171 0 Not Applicable
05/13/2026 02 AM PDT 3.06 171 0 Not Applicable
05/13/2026 03 AM PDT 3.06 171 0 Not Applicable
05/13/2026 04 AM PDT 3.06 171 0 Not Applicable
05/13/2026 05 AM PDT 3.06 171 0 Not Applicable
#
# NOTE 1: Stages are rounded to the nearest hundredth (.01) of a foot.
# NOTE 2: Flows are rounded to the nearest (1) cfs.
# NOTE 3: Trends are determined using hourly change in unrounded stage and flow.
# NOTE 4: Maximum Values are determined using unrounded stage and flow.
|